sensor_id;sensor_type;location;lat;lon;timestamp;P1;durP1;ratioP1;P2;durP2;ratioP2
73170;SDS011;61381;50.118;19.962;2022-09-17T00:01:33;23.58;;;11.77;;
73170;SDS011;61381;50.118;19.962;2022-09-17T00:06:34;30.80;;;12.68;;
73170;SDS011;61381;50.118;19.962;2022-09-17T00:11:38;23.25;;;11.77;;
73170;SDS011;61381;50.118;19.962;2022-09-17T00:16:41;25.63;;;11.07;;
73170;SDS011;61381;50.118;19.962;2022-09-17T00:21:44;30.67;;;12.65;;
73170;SDS011;61381;50.118;19.962;2022-09-17T00:26:47;25.40;;;12.02;;
73170;SDS011;61381;50.118;19.962;2022-09-17T00:31:48;31.67;;;14.60;;
73170;SDS011;61381;50.118;19.962;2022-09-17T00:36:49;30.98;;;13.82;;
73170;SDS011;61381;50.118;19.962;2022-09-17T00:41:51;30.10;;;13.10;;
73170;SDS011;61381;50.118;19.962;2022-09-17T00:46:52;32.10;;;13.00;;
73170;SDS011;61381;50.118;19.962;2022-09-17T00:51:54;27.92;;;13.82;;
73170;SDS011;61381;50.118;19.962;2022-09-17T00:57:00;31.52;;;14.05;;
73170;SDS011;61381;50.118;19.962;2022-09-17T01:02:01;31.20;;;13.75;;
73170;SDS011;61381;50.118;19.962;2022-09-17T01:07:05;34.72;;;14.60;;
73170;SDS011;61381;50.118;19.962;2022-09-17T01:12:20;29.38;;;12.40;;
73170;SDS011;61381;50.118;19.962;2022-09-17T01:17:29;29.30;;;13.20;;
73170;SDS011;61381;50.118;19.962;2022-09-17T01:22:41;25.35;;;12.45;;
73170;SDS011;61381;50.118;19.962;2022-09-17T01:28:12;34.65;;;13.93;;
73170;SDS011;61381;50.118;19.962;2022-09-17T01:33:24;33.30;;;14.15;;
73170;SDS011;61381;50.118;19.962;2022-09-17T01:38:33;38.67;;;13.38;;
73170;SDS011;61381;50.118;19.962;2022-09-17T01:43:44;35.05;;;14.02;;
73170;SDS011;61381;50.118;19.962;2022-09-17T01:48:57;45.03;;;15.70;;
73170;SDS011;61381;50.118;19.962;2022-09-17T01:54:01;35.90;;;15.30;;
73170;SDS011;61381;50.118;19.962;2022-09-17T01:59:08;31.20;;;14.75;;
73170;SDS011;61381;50.118;19.962;2022-09-17T02:04:16;34.70;;;14.57;;
73170;SDS011;61381;50.118;19.962;2022-09-17T02:09:22;40.17;;;15.38;;
73170;SDS011;61381;50.118;19.962;2022-09-17T02:14:30;80.70;;;20.30;;
73170;SDS011;61381;50.118;19.962;2022-09-17T02:19:37;54.67;;;19.15;;
73170;SDS011;61381;50.118;19.962;2022-09-17T02:24:41;60.92;;;22.88;;
73170;SDS011;61381;50.118;19.962;2022-09-17T02:29:47;56.55;;;18.17;;
73170;SDS011;61381;50.118;19.962;2022-09-17T02:34:49;47.00;;;16.92;;
73170;SDS011;61381;50.118;19.962;2022-09-17T02:39:50;34.22;;;15.57;;
73170;SDS011;61381;50.118;19.962;2022-09-17T02:44:59;32.47;;;13.65;;
73170;SDS011;61381;50.118;19.962;2022-09-17T02:50:10;39.58;;;14.90;;
73170;SDS011;61381;50.118;19.962;2022-09-17T02:55:22;36.17;;;14.57;;
73170;SDS011;61381;50.118;19.962;2022-09-17T03:00:29;28.38;;;14.30;;
73170;SDS011;61381;50.118;19.962;2022-09-17T03:05:32;34.08;;;14.30;;
73170;SDS011;61381;50.118;19.962;2022-09-17T03:10:36;41.50;;;14.02;;
73170;SDS011;61381;50.118;19.962;2022-09-17T03:15:36;36.70;;;15.48;;
73170;SDS011;61381;50.118;19.962;2022-09-17T03:20:39;37.58;;;15.07;;
73170;SDS011;61381;50.118;19.962;2022-09-17T03:25:39;32.55;;;14.05;;
73170;SDS011;61381;50.118;19.962;2022-09-17T03:30:41;33.53;;;13.73;;
73170;SDS011;61381;50.118;19.962;2022-09-17T03:35:44;32.33;;;12.77;;
73170;SDS011;61381;50.118;19.962;2022-09-17T03:40:55;32.17;;;12.95;;
73170;SDS011;61381;50.118;19.962;2022-09-17T03:45:56;24.80;;;11.32;;
73170;SDS011;61381;50.118;19.962;2022-09-17T03:50:59;29.52;;;11.75;;
73170;SDS011;61381;50.118;19.962;2022-09-17T03:56:00;25.02;;;11.30;;
73170;SDS011;61381;50.118;19.962;2022-09-17T04:01:02;23.75;;;10.38;;
73170;SDS011;61381;50.118;19.962;2022-09-17T04:06:04;23.20;;;10.07;;
73170;SDS011;61381;50.118;19.962;2022-09-17T04:11:05;25.77;;;10.75;;
73170;SDS011;61381;50.118;19.962;2022-09-17T04:16:06;22.65;;;10.68;;
73170;SDS011;61381;50.118;19.962;2022-09-17T04:21:08;20.13;;;9.20;;
73170;SDS011;61381;50.118;19.962;2022-09-17T04:26:09;19.30;;;8.90;;
73170;SDS011;61381;50.118;19.962;2022-09-17T04:31:10;22.40;;;9.82;;
73170;SDS011;61381;50.118;19.962;2022-09-17T04:36:12;26.08;;;10.90;;
73170;SDS011;61381;50.118;19.962;2022-09-17T04:41:13;24.15;;;10.63;;
73170;SDS011;61381;50.118;19.962;2022-09-17T04:46:14;19.73;;;10.05;;
73170;SDS011;61381;50.118;19.962;2022-09-17T04:51:16;26.02;;;11.43;;
73170;SDS011;61381;50.118;19.962;2022-09-17T04:56:17;23.77;;;11.15;;
73170;SDS011;61381;50.118;19.962;2022-09-17T05:01:18;24.05;;;11.43;;
73170;SDS011;61381;50.118;19.962;2022-09-17T05:06:20;23.63;;;11.40;;
73170;SDS011;61381;50.118;19.962;2022-09-17T05:11:21;19.50;;;10.18;;
73170;SDS011;61381;50.118;19.962;2022-09-17T05:16:22;21.88;;;10.82;;
73170;SDS011;61381;50.118;19.962;2022-09-17T05:21:24;21.58;;;10.65;;
73170;SDS011;61381;50.118;19.962;2022-09-17T05:26:25;21.85;;;10.45;;
73170;SDS011;61381;50.118;19.962;2022-09-17T05:31:25;19.10;;;9.55;;
73170;SDS011;61381;50.118;19.962;2022-09-17T05:36:28;16.55;;;9.75;;
73170;SDS011;61381;50.118;19.962;2022-09-17T05:41:29;18.70;;;10.65;;
73170;SDS011;61381;50.118;19.962;2022-09-17T05:51:50;17.27;;;9.75;;
73170;SDS011;61381;50.118;19.962;2022-09-17T05:56:51;16.15;;;8.65;;
73170;SDS011;61381;50.118;19.962;2022-09-17T06:01:52;15.32;;;8.00;;
73170;SDS011;61381;50.118;19.962;2022-09-17T06:06:54;15.43;;;7.88;;
73170;SDS011;61381;50.118;19.962;2022-09-17T06:11:54;14.45;;;7.35;;
73170;SDS011;61381;50.118;19.962;2022-09-17T06:16:55;12.70;;;7.00;;
73170;SDS011;61381;50.118;19.962;2022-09-17T06:21:57;14.88;;;6.97;;
73170;SDS011;61381;50.118;19.962;2022-09-17T06:26:58;13.82;;;6.60;;
73170;SDS011;61381;50.118;19.962;2022-09-17T06:31:58;12.70;;;7.25;;
73170;SDS011;61381;50.118;19.962;2022-09-17T06:37:00;11.77;;;6.45;;
73170;SDS011;61381;50.118;19.962;2022-09-17T06:42:01;11.85;;;6.18;;
73170;SDS011;61381;50.118;19.962;2022-09-17T06:47:02;10.40;;;6.35;;
73170;SDS011;61381;50.118;19.962;2022-09-17T06:52:04;11.48;;;6.40;;
73170;SDS011;61381;50.118;19.962;2022-09-17T06:57:04;10.38;;;5.97;;
73170;SDS011;61381;50.118;19.962;2022-09-17T07:02:05;12.48;;;6.45;;
73170;SDS011;61381;50.118;19.962;2022-09-17T07:07:07;10.23;;;5.50;;
73170;SDS011;61381;50.118;19.962;2022-09-17T07:12:08;9.68;;;5.18;;
73170;SDS011;61381;50.118;19.962;2022-09-17T07:17:08;7.20;;;4.40;;
73170;SDS011;61381;50.118;19.962;2022-09-17T07:22:10;8.53;;;5.47;;
73170;SDS011;61381;50.118;19.962;2022-09-17T07:27:11;7.82;;;5.15;;
73170;SDS011;61381;50.118;19.962;2022-09-17T07:32:11;8.52;;;3.88;;
73170;SDS011;61381;50.118;19.962;2022-09-17T07:37:14;9.30;;;4.63;;
73170;SDS011;61381;50.118;19.962;2022-09-17T07:42:14;7.25;;;3.75;;
73170;SDS011;61381;50.118;19.962;2022-09-17T07:47:15;4.60;;;2.83;;
73170;SDS011;61381;50.118;19.962;2022-09-17T07:52:17;5.80;;;2.47;;
73170;SDS011;61381;50.118;19.962;2022-09-17T07:57:17;4.65;;;3.13;;
73170;SDS011;61381;50.118;19.962;2022-09-17T08:02:18;4.25;;;3.00;;
73170;SDS011;61381;50.118;19.962;2022-09-17T08:07:20;5.77;;;3.20;;
73170;SDS011;61381;50.118;19.962;2022-09-17T08:12:20;6.70;;;3.10;;
73170;SDS011;61381;50.118;19.962;2022-09-17T08:17:21;6.17;;;2.83;;
73170;SDS011;61381;50.118;19.962;2022-09-17T08:22:23;4.53;;;2.60;;
73170;SDS011;61381;50.118;19.962;2022-09-17T08:27:23;5.00;;;3.10;;
73170;SDS011;61381;50.118;19.962;2022-09-17T08:32:24;3.87;;;2.80;;
73170;SDS011;61381;50.118;19.962;2022-09-17T08:37:26;4.65;;;2.90;;
73170;SDS011;61381;50.118;19.962;2022-09-17T08:42:29;5.78;;;2.20;;
73170;SDS011;61381;50.118;19.962;2022-09-17T08:47:32;4.38;;;2.50;;
73170;SDS011;61381;50.118;19.962;2022-09-17T08:58:16;2.50;;;2.10;;
73170;SDS011;61381;50.118;19.962;2022-09-17T09:03:24;4.32;;;2.20;;
73170;SDS011;61381;50.118;19.962;2022-09-17T09:08:28;2.88;;;2.00;;
73170;SDS011;61381;50.118;19.962;2022-09-17T09:13:32;2.30;;;1.50;;
73170;SDS011;61381;50.118;19.962;2022-09-17T09:18:34;3.53;;;1.77;;
73170;SDS011;61381;50.118;19.962;2022-09-17T09:23:39;2.38;;;1.83;;
73170;SDS011;61381;50.118;19.962;2022-09-17T09:28:49;3.75;;;2.40;;
73170;SDS011;61381;50.118;19.962;2022-09-17T09:33:52;3.85;;;1.63;;
73170;SDS011;61381;50.118;19.962;2022-09-17T09:38:53;3.67;;;1.73;;
73170;SDS011;61381;50.118;19.962;2022-09-17T09:43:59;3.40;;;2.10;;
73170;SDS011;61381;50.118;19.962;2022-09-17T09:49:04;3.85;;;2.15;;
73170;SDS011;61381;50.118;19.962;2022-09-17T09:54:11;1.42;;;1.30;;
73170;SDS011;61381;50.118;19.962;2022-09-17T09:59:14;5.55;;;2.38;;
73170;SDS011;61381;50.118;19.962;2022-09-17T10:04:17;2.55;;;1.90;;
73170;SDS011;61381;50.118;19.962;2022-09-17T10:09:18;5.03;;;1.48;;
73170;SDS011;61381;50.118;19.962;2022-09-17T10:14:22;3.03;;;1.45;;
73170;SDS011;61381;50.118;19.962;2022-09-17T10:19:23;1.95;;;1.55;;
73170;SDS011;61381;50.118;19.962;2022-09-17T10:24:26;5.43;;;1.77;;
73170;SDS011;61381;50.118;19.962;2022-09-17T10:29:28;1.45;;;1.33;;
73170;SDS011;61381;50.118;19.962;2022-09-17T10:34:29;2.20;;;1.55;;
73170;SDS011;61381;50.118;19.962;2022-09-17T10:39:32;2.63;;;1.80;;
73170;SDS011;61381;50.118;19.962;2022-09-17T10:44:34;2.05;;;1.27;;
73170;SDS011;61381;50.118;19.962;2022-09-17T10:49:39;3.72;;;1.58;;
73170;SDS011;61381;50.118;19.962;2022-09-17T10:54:49;3.55;;;1.80;;
73170;SDS011;61381;50.118;19.962;2022-09-17T10:59:57;3.38;;;1.52;;
73170;SDS011;61381;50.118;19.962;2022-09-17T11:05:03;2.33;;;1.65;;
73170;SDS011;61381;50.118;19.962;2022-09-17T11:10:09;4.13;;;2.05;;
73170;SDS011;61381;50.118;19.962;2022-09-17T11:15:17;4.05;;;1.90;;
73170;SDS011;61381;50.118;19.962;2022-09-17T11:20:23;2.47;;;1.67;;
73170;SDS011;61381;50.118;19.962;2022-09-17T11:25:37;3.88;;;1.70;;
73170;SDS011;61381;50.118;19.962;2022-09-17T11:30:45;3.85;;;2.13;;
73170;SDS011;61381;50.118;19.962;2022-09-17T11:35:48;4.22;;;1.80;;
73170;SDS011;61381;50.118;19.962;2022-09-17T11:40:52;5.13;;;2.45;;
73170;SDS011;61381;50.118;19.962;2022-09-17T11:46:01;3.67;;;1.95;;
73170;SDS011;61381;50.118;19.962;2022-09-17T11:51:05;3.03;;;2.03;;
73170;SDS011;61381;50.118;19.962;2022-09-17T11:56:09;3.72;;;2.50;;
73170;SDS011;61381;50.118;19.962;2022-09-17T12:01:15;5.00;;;2.53;;
73170;SDS011;61381;50.118;19.962;2022-09-17T12:06:17;3.72;;;2.05;;
73170;SDS011;61381;50.118;19.962;2022-09-17T12:11:20;3.70;;;2.45;;
73170;SDS011;61381;50.118;19.962;2022-09-17T12:16:24;3.45;;;2.63;;
73170;SDS011;61381;50.118;19.962;2022-09-17T12:21:26;6.10;;;2.60;;
73170;SDS011;61381;50.118;19.962;2022-09-17T12:26:32;3.85;;;2.47;;
73170;SDS011;61381;50.118;19.962;2022-09-17T12:31:37;3.13;;;2.22;;
73170;SDS011;61381;50.118;19.962;2022-09-17T12:36:41;4.90;;;2.70;;
73170;SDS011;61381;50.118;19.962;2022-09-17T12:41:49;4.75;;;2.60;;
73170;SDS011;61381;50.118;19.962;2022-09-17T12:46:57;4.68;;;2.70;;
73170;SDS011;61381;50.118;19.962;2022-09-17T12:52:04;4.38;;;2.65;;
73170;SDS011;61381;50.118;19.962;2022-09-17T12:57:09;4.75;;;2.92;;
73170;SDS011;61381;50.118;19.962;2022-09-17T13:02:16;3.80;;;1.60;;
73170;SDS011;61381;50.118;19.962;2022-09-17T13:07:23;3.00;;;1.65;;
73170;SDS011;61381;50.118;19.962;2022-09-17T13:12:29;4.65;;;2.47;;
73170;SDS011;61381;50.118;19.962;2022-09-17T13:17:35;4.88;;;2.72;;
73170;SDS011;61381;50.118;19.962;2022-09-17T13:22:42;3.60;;;2.30;;
73170;SDS011;61381;50.118;19.962;2022-09-17T13:27:43;4.18;;;2.63;;
73170;SDS011;61381;50.118;19.962;2022-09-17T13:32:47;4.30;;;2.47;;
73170;SDS011;61381;50.118;19.962;2022-09-17T13:37:53;4.35;;;2.65;;
73170;SDS011;61381;50.118;19.962;2022-09-17T13:42:54;4.38;;;2.90;;
73170;SDS011;61381;50.118;19.962;2022-09-17T13:47:57;4.00;;;2.22;;
73170;SDS011;61381;50.118;19.962;2022-09-17T13:52:59;3.83;;;2.75;;
73170;SDS011;61381;50.118;19.962;2022-09-17T13:58:05;3.15;;;2.50;;
73170;SDS011;61381;50.118;19.962;2022-09-17T14:08:25;4.15;;;2.47;;
73170;SDS011;61381;50.118;19.962;2022-09-17T14:13:39;4.13;;;3.03;;
73170;SDS011;61381;50.118;19.962;2022-09-17T14:24:03;6.95;;;3.25;;
73170;SDS011;61381;50.118;19.962;2022-09-17T14:29:31;5.97;;;3.92;;
73170;SDS011;61381;50.118;19.962;2022-09-17T14:34:33;6.97;;;3.92;;
73170;SDS011;61381;50.118;19.962;2022-09-17T14:39:37;5.72;;;3.63;;
73170;SDS011;61381;50.118;19.962;2022-09-17T14:44:44;6.15;;;3.92;;
73170;SDS011;61381;50.118;19.962;2022-09-17T14:49:46;7.28;;;3.90;;
73170;SDS011;61381;50.118;19.962;2022-09-17T14:54:49;6.03;;;3.42;;
73170;SDS011;61381;50.118;19.962;2022-09-17T15:00:11;6.60;;;3.58;;
73170;SDS011;61381;50.118;19.962;2022-09-17T15:05:16;6.72;;;3.72;;
73170;SDS011;61381;50.118;19.962;2022-09-17T15:10:19;7.40;;;4.03;;
73170;SDS011;61381;50.118;19.962;2022-09-17T15:15:20;4.80;;;3.50;;
73170;SDS011;61381;50.118;19.962;2022-09-17T15:20:22;6.18;;;3.65;;
73170;SDS011;61381;50.118;19.962;2022-09-17T15:25:24;7.80;;;3.65;;
73170;SDS011;61381;50.118;19.962;2022-09-17T15:30:28;7.22;;;4.20;;
73170;SDS011;61381;50.118;19.962;2022-09-17T15:35:29;4.80;;;3.83;;
73170;SDS011;61381;50.118;19.962;2022-09-17T15:40:32;8.02;;;3.63;;
73170;SDS011;61381;50.118;19.962;2022-09-17T15:45:33;5.28;;;3.38;;
73170;SDS011;61381;50.118;19.962;2022-09-17T15:50:34;6.22;;;3.35;;
73170;SDS011;61381;50.118;19.962;2022-09-17T15:55:37;6.00;;;3.47;;
73170;SDS011;61381;50.118;19.962;2022-09-17T16:00:38;5.90;;;3.90;;
73170;SDS011;61381;50.118;19.962;2022-09-17T16:05:43;5.72;;;4.18;;
73170;SDS011;61381;50.118;19.962;2022-09-17T16:10:45;5.80;;;4.07;;
73170;SDS011;61381;50.118;19.962;2022-09-17T16:15:46;6.40;;;3.63;;
73170;SDS011;61381;50.118;19.962;2022-09-17T16:20:46;8.48;;;4.25;;
73170;SDS011;61381;50.118;19.962;2022-09-17T16:25:48;7.87;;;4.27;;
73170;SDS011;61381;50.118;19.962;2022-09-17T16:30:49;8.35;;;4.65;;
73170;SDS011;61381;50.118;19.962;2022-09-17T16:35:50;8.55;;;4.75;;
73170;SDS011;61381;50.118;19.962;2022-09-17T16:40:52;7.25;;;4.78;;
73170;SDS011;61381;50.118;19.962;2022-09-17T16:45:58;8.07;;;4.93;;
73170;SDS011;61381;50.118;19.962;2022-09-17T16:50:59;8.30;;;4.72;;
73170;SDS011;61381;50.118;19.962;2022-09-17T16:56:04;9.23;;;5.05;;
73170;SDS011;61381;50.118;19.962;2022-09-17T17:01:05;9.38;;;5.28;;
73170;SDS011;61381;50.118;19.962;2022-09-17T17:06:13;10.05;;;5.55;;
73170;SDS011;61381;50.118;19.962;2022-09-17T17:11:15;8.80;;;6.05;;
73170;SDS011;61381;50.118;19.962;2022-09-17T17:16:16;10.60;;;6.20;;
73170;SDS011;61381;50.118;19.962;2022-09-17T17:21:17;10.48;;;6.13;;
73170;SDS011;61381;50.118;19.962;2022-09-17T17:26:19;10.20;;;5.50;;
73170;SDS011;61381;50.118;19.962;2022-09-17T17:31:20;11.07;;;6.05;;
73170;SDS011;61381;50.118;19.962;2022-09-17T17:36:21;13.77;;;7.07;;
73170;SDS011;61381;50.118;19.962;2022-09-17T17:41:23;16.77;;;9.75;;
73170;SDS011;61381;50.118;19.962;2022-09-17T17:46:23;16.23;;;7.18;;
73170;SDS011;61381;50.118;19.962;2022-09-17T17:51:24;15.67;;;8.50;;
73170;SDS011;61381;50.118;19.962;2022-09-17T17:56:26;11.23;;;7.63;;
73170;SDS011;61381;50.118;19.962;2022-09-17T18:01:27;13.55;;;7.00;;
73170;SDS011;61381;50.118;19.962;2022-09-17T18:06:28;13.65;;;7.75;;
73170;SDS011;61381;50.118;19.962;2022-09-17T18:11:30;13.18;;;6.88;;
73170;SDS011;61381;50.118;19.962;2022-09-17T18:16:31;12.15;;;7.78;;
73170;SDS011;61381;50.118;19.962;2022-09-17T18:21:32;13.20;;;6.78;;
73170;SDS011;61381;50.118;19.962;2022-09-17T18:26:34;12.27;;;7.07;;
73170;SDS011;61381;50.118;19.962;2022-09-17T18:31:34;13.30;;;7.53;;
73170;SDS011;61381;50.118;19.962;2022-09-17T18:36:35;11.63;;;7.18;;
73170;SDS011;61381;50.118;19.962;2022-09-17T18:41:37;15.63;;;6.80;;
73170;SDS011;61381;50.118;19.962;2022-09-17T18:46:38;15.25;;;8.70;;
73170;SDS011;61381;50.118;19.962;2022-09-17T18:51:38;12.83;;;7.57;;
73170;SDS011;61381;50.118;19.962;2022-09-17T18:56:41;14.13;;;9.00;;
73170;SDS011;61381;50.118;19.962;2022-09-17T19:01:41;16.05;;;8.25;;
73170;SDS011;61381;50.118;19.962;2022-09-17T19:06:42;15.10;;;8.67;;
73170;SDS011;61381;50.118;19.962;2022-09-17T19:11:44;16.75;;;9.65;;
73170;SDS011;61381;50.118;19.962;2022-09-17T19:16:44;17.10;;;9.65;;
73170;SDS011;61381;50.118;19.962;2022-09-17T19:21:47;19.80;;;10.13;;
73170;SDS011;61381;50.118;19.962;2022-09-17T19:26:49;21.60;;;10.57;;
73170;SDS011;61381;50.118;19.962;2022-09-17T19:31:49;16.20;;;10.23;;
73170;SDS011;61381;50.118;19.962;2022-09-17T19:36:50;21.03;;;10.63;;
73170;SDS011;61381;50.118;19.962;2022-09-17T19:41:52;21.85;;;10.25;;
73170;SDS011;61381;50.118;19.962;2022-09-17T19:46:52;19.75;;;10.25;;
73170;SDS011;61381;50.118;19.962;2022-09-17T19:51:53;21.13;;;11.00;;
73170;SDS011;61381;50.118;19.962;2022-09-17T19:56:55;21.08;;;10.18;;
73170;SDS011;61381;50.118;19.962;2022-09-17T20:01:56;24.27;;;11.40;;
73170;SDS011;61381;50.118;19.962;2022-09-17T20:06:56;22.33;;;10.82;;
73170;SDS011;61381;50.118;19.962;2022-09-17T20:11:58;19.27;;;9.82;;
73170;SDS011;61381;50.118;19.962;2022-09-17T20:16:59;24.15;;;12.15;;
73170;SDS011;61381;50.118;19.962;2022-09-17T20:21:59;17.33;;;9.82;;
73170;SDS011;61381;50.118;19.962;2022-09-17T20:27:01;21.63;;;10.37;;
73170;SDS011;61381;50.118;19.962;2022-09-17T20:32:02;22.40;;;10.57;;
73170;SDS011;61381;50.118;19.962;2022-09-17T20:37:03;22.45;;;10.45;;
73170;SDS011;61381;50.118;19.962;2022-09-17T20:42:05;21.90;;;10.60;;
73170;SDS011;61381;50.118;19.962;2022-09-17T20:47:05;19.00;;;10.15;;
73170;SDS011;61381;50.118;19.962;2022-09-17T20:52:06;20.77;;;10.50;;
73170;SDS011;61381;50.118;19.962;2022-09-17T20:57:08;22.30;;;11.10;;
73170;SDS011;61381;50.118;19.962;2022-09-17T21:02:09;23.10;;;10.95;;
73170;SDS011;61381;50.118;19.962;2022-09-17T21:07:09;20.33;;;9.48;;
73170;SDS011;61381;50.118;19.962;2022-09-17T21:12:11;21.83;;;9.90;;
73170;SDS011;61381;50.118;19.962;2022-09-17T21:17:12;21.90;;;12.15;;
73170;SDS011;61381;50.118;19.962;2022-09-17T21:22:12;21.80;;;11.15;;
73170;SDS011;61381;50.118;19.962;2022-09-17T21:27:14;20.67;;;10.00;;
73170;SDS011;61381;50.118;19.962;2022-09-17T21:32:15;23.80;;;10.85;;
73170;SDS011;61381;50.118;19.962;2022-09-17T21:37:15;22.75;;;11.25;;
73170;SDS011;61381;50.118;19.962;2022-09-17T21:42:17;18.10;;;9.60;;
73170;SDS011;61381;50.118;19.962;2022-09-17T21:47:18;22.35;;;11.30;;
73170;SDS011;61381;50.118;19.962;2022-09-17T21:52:19;22.40;;;11.17;;
73170;SDS011;61381;50.118;19.962;2022-09-17T21:57:21;21.65;;;9.82;;
73170;SDS011;61381;50.118;19.962;2022-09-17T22:02:21;21.20;;;10.05;;
73170;SDS011;61381;50.118;19.962;2022-09-17T22:07:22;22.90;;;10.23;;
73170;SDS011;61381;50.118;19.962;2022-09-17T22:12:24;15.43;;;7.50;;
73170;SDS011;61381;50.118;19.962;2022-09-17T22:17:24;16.08;;;8.32;;
73170;SDS011;61381;50.118;19.962;2022-09-17T22:22:25;14.85;;;7.60;;
73170;SDS011;61381;50.118;19.962;2022-09-17T22:27:27;14.10;;;6.03;;
73170;SDS011;61381;50.118;19.962;2022-09-17T22:32:27;7.85;;;4.40;;
73170;SDS011;61381;50.118;19.962;2022-09-17T22:37:28;8.23;;;4.00;;
73170;SDS011;61381;50.118;19.962;2022-09-17T22:42:30;5.93;;;3.33;;
73170;SDS011;61381;50.118;19.962;2022-09-17T22:47:30;7.13;;;3.63;;
73170;SDS011;61381;50.118;19.962;2022-09-17T22:52:31;7.83;;;3.53;;
73170;SDS011;61381;50.118;19.962;2022-09-17T22:57:33;6.03;;;2.83;;
73170;SDS011;61381;50.118;19.962;2022-09-17T23:02:33;4.05;;;2.00;;
73170;SDS011;61381;50.118;19.962;2022-09-17T23:07:34;4.83;;;3.00;;
73170;SDS011;61381;50.118;19.962;2022-09-17T23:12:36;6.88;;;2.95;;
73170;SDS011;61381;50.118;19.962;2022-09-17T23:17:36;5.90;;;2.83;;
73170;SDS011;61381;50.118;19.962;2022-09-17T23:22:37;5.00;;;2.20;;
73170;SDS011;61381;50.118;19.962;2022-09-17T23:27:39;6.57;;;2.08;;
73170;SDS011;61381;50.118;19.962;2022-09-17T23:32:39;4.90;;;2.63;;
73170;SDS011;61381;50.118;19.962;2022-09-17T23:37:40;5.03;;;2.53;;
73170;SDS011;61381;50.118;19.962;2022-09-17T23:42:42;5.90;;;3.03;;
73170;SDS011;61381;50.118;19.962;2022-09-17T23:47:42;7.90;;;4.78;;
73170;SDS011;61381;50.118;19.962;2022-09-17T23:52:43;6.70;;;4.15;;
73170;SDS011;61381;50.118;19.962;2022-09-17T23:57:46;10.23;;;4.93;;
